Time;durP1;ratioP1;P1;durP2;ratioP2;P2;SDS_P1;SDS_P2;PMS_P1;PMS_P2;Temp;Humidity;BMP_temperature;BMP_pressure;BME280_temperature;BME280_humidity;BME280_pressure;Samples;Min_cycle;Max_cycle;Signal;HPM_P1;HPM_P2
2023/09/13 00:00:16;;;;;;;135.75;51.20;;;;;;;-147.95;100.00;58458.38;5083391;28;20111;-80
2023/09/13 00:02:41;;;;;;;133.38;50.90;;;;;;;-147.95;100.00;58458.38;5085947;28;20032;-80
2023/09/13 00:05:08;;;;;;;128.48;49.35;;;;;;;-147.95;100.00;58458.38;5084076;28;20060;-80
2023/09/13 00:07:33;;;;;;;136.85;52.33;;;;;;;-147.95;100.00;58458.38;5080654;28;20033;-80
2023/09/13 00:09:59;;;;;;;134.50;51.00;;;;;;;-147.95;100.00;58458.38;5067580;28;20078;-80
2023/09/13 00:12:25;;;;;;;133.10;51.00;;;;;;;-147.95;100.00;58458.38;5087942;28;20042;-80
2023/09/13 00:14:51;;;;;;;124.75;49.92;;;;;;;-147.95;100.00;58458.38;5087209;28;20028;-80
2023/09/13 00:17:18;;;;;;;131.20;50.00;;;;;;;-147.95;100.00;58458.38;5090628;28;20089;-80
2023/09/13 00:19:43;;;;;;;138.57;51.80;;;;;;;-147.95;100.00;58458.38;5081862;28;20023;-80
2023/09/13 00:22:08;;;;;;;126.13;49.00;;;;;;;-147.95;100.00;58458.38;5083660;28;20173;-80
2023/09/13 00:24:34;;;;;;;128.95;51.22;;;;;;;-147.95;100.00;58458.38;5084852;28;20056;-80
2023/09/13 00:26:59;;;;;;;120.35;48.22;;;;;;;-147.95;100.00;58458.38;5070736;28;20069;-80
2023/09/13 00:29:25;;;;;;;137.02;50.67;;;;;;;-147.95;100.00;58458.38;5085130;28;20376;-80
2023/09/13 00:31:50;;;;;;;123.65;49.60;;;;;;;-147.95;100.00;58458.38;5056353;28;20078;-80
2023/09/13 00:34:15;;;;;;;122.72;49.05;;;;;;;-147.95;100.00;58458.38;5089371;28;20040;-80
2023/09/13 00:36:41;;;;;;;122.05;48.53;;;;;;;-147.95;100.00;58458.38;5069523;28;20115;-80
2023/09/13 00:39:06;;;;;;;121.25;49.97;;;;;;;-147.95;100.00;58458.38;5078496;28;20063;-81
2023/09/13 00:41:32;;;;;;;136.18;51.28;;;;;;;-147.95;100.00;58458.38;5089972;28;20564;-81
2023/09/13 00:43:59;;;;;;;125.22;49.95;;;;;;;-147.95;100.00;58458.38;5085070;28;20037;-80
2023/09/13 00:46:25;;;;;;;128.57;48.55;;;;;;;-147.95;100.00;58458.38;5079983;28;20024;-81
2023/09/13 00:48:51;;;;;;;129.43;50.03;;;;;;;-147.95;100.00;58458.38;5068933;28;20182;-80
2023/09/13 00:51:17;;;;;;;128.25;49.83;;;;;;;-147.95;100.00;58458.38;5090199;28;20160;-80
2023/09/13 00:53:42;;;;;;;128.05;47.97;;;;;;;-147.95;100.00;58458.38;5085888;28;20536;-80
2023/09/13 00:56:09;;;;;;;137.30;50.95;;;;;;;-147.95;100.00;58458.38;5087849;28;20028;-80
2023/09/13 00:58:35;;;;;;;121.18;47.25;;;;;;;-147.95;100.00;58458.38;5086442;28;20478;-80
2023/09/13 01:01:00;;;;;;;125.05;50.88;;;;;;;-147.95;100.00;58458.38;5090481;28;20509;-91
2023/09/13 01:03:27;;;;;;;121.68;46.63;;;;;;;-147.95;100.00;58458.38;5072433;28;20029;-91
2023/09/13 01:05:54;;;;;;;145.63;50.63;;;;;;;-147.95;100.00;58458.38;5075435;28;20042;-91
2023/09/13 01:08:20;;;;;;;131.93;51.00;;;;;;;-147.95;100.00;58458.38;5080668;28;20036;-89
2023/09/13 01:10:47;;;;;;;133.93;49.72;;;;;;;-147.95;100.00;58458.38;5087145;28;20383;-90
2023/09/13 01:13:13;;;;;;;149.30;52.15;;;;;;;-147.95;100.00;58458.38;5095736;28;20027;-90
2023/09/13 01:15:46;;;;;;;139.45;50.65;;;;;;;-147.95;100.00;58458.38;5089238;28;20443;-90
2023/09/13 01:18:21;;;;;;;127.53;48.83;;;;;;;-147.95;100.00;58458.38;5094279;28;20016;-89
2023/09/13 01:21:06;;;;;;;139.63;51.78;;;;;;;-147.95;100.00;58458.38;5085775;28;20053;-90
2023/09/13 01:23:52;;;;;;;125.93;47.30;;;;;;;-147.95;100.00;58458.38;5092009;28;20028;-90
2023/09/13 01:26:42;;;;;;;142.95;49.88;;;;;;;-147.95;100.00;58458.38;5085005;28;20502;-89
2023/09/13 01:29:14;;;;;;;136.20;48.75;;;;;;;-147.95;100.00;58458.38;5084544;28;20141;-90
2023/09/13 01:31:40;;;;;;;131.30;49.67;;;;;;;-147.95;100.00;58458.38;5092030;28;20544;-91
2023/09/13 01:34:06;;;;;;;123.30;46.80;;;;;;;-147.95;100.00;58458.38;5078648;28;20424;-91
2023/09/13 01:36:31;;;;;;;126.07;49.80;;;;;;;-147.95;100.00;58458.38;5081239;28;20024;-90
2023/09/13 01:38:58;;;;;;;124.30;49.00;;;;;;;-147.95;100.00;58458.38;5078212;28;20048;-90
2023/09/13 01:41:30;;;;;;;132.18;48.55;;;;;;;-147.95;100.00;58458.38;5091733;28;20081;-90
2023/09/13 01:43:57;;;;;;;124.57;48.78;;;;;;;-147.95;100.00;58458.38;5083400;28;20036;-90
2023/09/13 01:46:29;;;;;;;125.88;48.17;;;;;;;-147.95;100.00;58458.38;5062586;28;20124;-90
2023/09/13 01:49:01;;;;;;;127.63;48.58;;;;;;;-147.95;100.00;58458.38;5090390;28;20016;-90
2023/09/13 01:51:27;;;;;;;124.82;48.13;;;;;;;-147.95;100.00;58458.38;5088071;28;20028;-91
2023/09/13 01:53:56;;;;;;;130.88;49.45;;;;;;;-147.95;100.00;58458.38;5096017;28;20059;-91
2023/09/13 01:56:22;;;;;;;133.55;50.40;;;;;;;-147.95;100.00;58458.38;5059488;28;20567;-91
2023/09/13 01:58:52;;;;;;;149.45;54.08;;;;;;;-147.95;100.00;58458.38;5070806;28;20403;-91
2023/09/13 02:01:19;;;;;;;135.65;52.65;;;;;;;-147.95;100.00;58458.38;5072898;28;20103;-91
2023/09/13 02:03:45;;;;;;;140.77;53.20;;;;;;;-147.95;100.00;58458.38;5086673;28;20012;-91
2023/09/13 02:06:12;;;;;;;140.57;52.60;;;;;;;-147.95;100.00;58458.38;5090246;28;20138;-89
2023/09/13 02:08:38;;;;;;;142.50;54.90;;;;;;;-147.95;100.00;58458.38;5087305;28;20127;-91
2023/09/13 02:11:06;;;;;;;145.60;55.90;;;;;;;-147.95;100.00;58458.38;5089957;28;20149;-81
2023/09/13 02:13:32;;;;;;;158.90;58.28;;;;;;;-147.95;100.00;58458.38;5087455;28;20073;-81
2023/09/13 02:15:57;;;;;;;171.18;59.40;;;;;;;-147.95;100.00;58458.38;5085140;28;20478;-81
2023/09/13 02:18:23;;;;;;;153.32;54.42;;;;;;;-147.95;100.00;58458.38;5066793;28;20127;-81
2023/09/13 02:20:48;;;;;;;148.35;55.67;;;;;;;-147.95;100.00;58458.38;5070335;28;20164;-81
2023/09/13 02:23:13;;;;;;;157.98;57.53;;;;;;;-147.95;100.00;58458.38;5082322;28;20115;-82
2023/09/13 02:25:44;;;;;;;178.73;61.22;;;;;;;-147.95;100.00;58458.38;5085469;28;20055;-81
2023/09/13 02:28:11;;;;;;;155.85;60.47;;;;;;;-147.95;100.00;58458.38;5085592;28;20032;-81
2023/09/13 02:30:37;;;;;;;177.73;61.22;;;;;;;-147.95;100.00;58458.38;5084602;28;20132;-81
2023/09/13 02:33:03;;;;;;;174.70;63.67;;;;;;;-147.95;100.00;58458.38;5087954;28;20055;-81
2023/09/13 02:35:30;;;;;;;181.40;62.95;;;;;;;-147.95;100.00;58458.38;5052488;28;20059;-80
2023/09/13 02:37:55;;;;;;;195.50;65.78;;;;;;;-147.95;100.00;58458.38;5066047;28;20025;-82
2023/09/13 02:40:21;;;;;;;189.65;66.03;;;;;;;-147.95;100.00;58458.38;5081165;28;20135;-81
2023/09/13 02:42:47;;;;;;;214.20;65.80;;;;;;;-147.95;100.00;58458.38;5071792;28;20473;-80
2023/09/13 02:45:13;;;;;;;197.38;64.88;;;;;;;-147.95;100.00;58458.38;5086363;28;20028;-81
2023/09/13 02:47:38;;;;;;;234.93;70.32;;;;;;;-147.95;100.00;58458.38;5063457;28;20525;-81
2023/09/13 02:50:05;;;;;;;232.32;70.03;;;;;;;-147.95;100.00;58458.38;5066096;28;20072;-81
2023/09/13 02:52:32;;;;;;;237.00;70.57;;;;;;;-147.95;100.00;58458.38;5083526;28;20040;-81
2023/09/13 02:54:58;;;;;;;227.95;72.75;;;;;;;-147.95;100.00;58458.38;5077428;28;20016;-81
2023/09/13 02:57:23;;;;;;;227.60;71.03;;;;;;;-147.95;100.00;58458.38;5076537;28;20079;-81
2023/09/13 02:59:50;;;;;;;224.45;71.78;;;;;;;-147.95;100.00;58458.38;5085877;28;20028;-81
2023/09/13 03:02:15;;;;;;;218.23;70.25;;;;;;;-147.95;100.00;58458.38;5089773;28;20504;-81
2023/09/13 03:04:40;;;;;;;230.32;71.25;;;;;;;-147.95;100.00;58458.38;5073305;28;20051;-81
2023/09/13 03:07:07;;;;;;;233.60;70.78;;;;;;;-147.95;100.00;58458.38;5066839;28;20542;-81
2023/09/13 03:09:33;;;;;;;242.60;73.30;;;;;;;-147.95;100.00;58458.38;5084908;28;20055;-81
2023/09/13 03:11:58;;;;;;;249.30;73.38;;;;;;;-147.95;100.00;58458.38;5069096;28;20105;-81
2023/09/13 03:14:24;;;;;;;229.05;68.80;;;;;;;-147.95;100.00;58458.38;5087971;28;20032;-81
2023/09/13 03:16:49;;;;;;;240.93;73.18;;;;;;;-147.95;100.00;58458.38;5084017;28;20047;-81
2023/09/13 03:19:15;;;;;;;239.48;68.60;;;;;;;-147.95;100.00;58458.38;5069141;28;20185;-81
2023/09/13 03:21:43;;;;;;;228.90;70.53;;;;;;;-147.95;100.00;58458.38;5082311;28;20040;-81
2023/09/13 03:24:09;;;;;;;231.40;68.47;;;;;;;-147.95;100.00;58458.38;5077684;28;20032;-81
2023/09/13 03:26:34;;;;;;;252.45;72.70;;;;;;;-147.95;100.00;58458.38;5081824;28;20043;-81
2023/09/13 03:29:00;;;;;;;256.98;72.35;;;;;;;-147.95;100.00;58458.38;5063976;28;20047;-81
2023/09/13 03:31:26;;;;;;;217.43;68.30;;;;;;;-147.95;100.00;58458.38;5068799;28;20478;-81
2023/09/13 03:33:54;;;;;;;209.57;67.10;;;;;;;-147.95;100.00;58458.38;5084094;28;20514;-81
2023/09/13 03:36:20;;;;;;;227.52;69.18;;;;;;;-147.95;100.00;58458.38;5078263;28;20036;-81
2023/09/13 03:38:46;;;;;;;232.52;69.90;;;;;;;-147.95;100.00;58458.38;5082436;28;20048;-81
2023/09/13 03:41:14;;;;;;;241.20;71.10;;;;;;;-147.95;100.00;58458.38;5086906;28;20462;-81
2023/09/13 03:43:40;;;;;;;233.25;69.07;;;;;;;-147.95;100.00;58458.38;5077259;28;20037;-81
2023/09/13 03:46:06;;;;;;;212.93;65.78;;;;;;;-147.95;100.00;58458.38;5084809;28;20043;-81
2023/09/13 03:48:33;;;;;;;216.93;65.68;;;;;;;-147.95;100.00;58458.38;5081104;28;20029;-81
2023/09/13 03:50:58;;;;;;;206.85;63.90;;;;;;;-147.95;100.00;58458.38;5085879;28;20036;-81
2023/09/13 03:53:24;;;;;;;216.98;66.80;;;;;;;-147.95;100.00;58458.38;5085764;28;20375;-81
2023/09/13 03:55:50;;;;;;;201.30;62.40;;;;;;;-147.95;100.00;58458.38;5067405;28;20047;-81
2023/09/13 03:58:16;;;;;;;198.40;61.47;;;;;;;-147.95;100.00;58458.38;5059426;28;20063;-81
2023/09/13 04:00:41;;;;;;;204.25;61.70;;;;;;;-147.95;100.00;58458.38;5084598;28;20063;-82
2023/09/13 04:03:07;;;;;;;194.48;62.95;;;;;;;-147.95;100.00;58458.38;5082653;28;20030;-81
2023/09/13 04:05:33;;;;;;;201.25;63.47;;;;;;;-147.95;100.00;58458.38;5081713;28;20033;-81
2023/09/13 04:07:58;;;;;;;210.00;63.17;;;;;;;-147.95;100.00;58458.38;5084660;28;20160;-81
2023/09/13 04:10:24;;;;;;;198.55;61.65;;;;;;;-147.95;100.00;58458.38;5082833;28;20396;-81
2023/09/13 04:12:50;;;;;;;193.68;62.35;;;;;;;-147.95;100.00;58458.38;5071587;28;20408;-81
2023/09/13 04:15:16;;;;;;;205.57;61.40;;;;;;;-147.95;100.00;58458.38;5084353;28;20035;-82
2023/09/13 04:17:41;;;;;;;204.15;63.70;;;;;;;-147.95;100.00;58458.38;5082796;28;20016;-82
2023/09/13 04:20:08;;;;;;;192.38;60.22;;;;;;;-147.95;100.00;58458.38;5083310;28;20031;-81
2023/09/13 04:22:33;;;;;;;207.32;59.25;;;;;;;-147.95;100.00;58458.38;5084546;28;20067;-82
2023/09/13 04:24:59;;;;;;;189.77;59.70;;;;;;;-147.95;100.00;58458.38;5080622;28;20068;-82
2023/09/13 04:27:24;;;;;;;184.48;57.92;;;;;;;-147.95;100.00;58458.38;5066433;28;20110;-81
2023/09/13 04:29:51;;;;;;;186.40;57.33;;;;;;;-147.95;100.00;58458.38;5078967;28;20107;-80
2023/09/13 04:32:16;;;;;;;184.38;57.00;;;;;;;-147.95;100.00;58458.38;5071799;28;20024;-88
2023/09/13 04:34:46;;;;;;;169.65;58.15;;;;;;;-147.95;100.00;58458.38;5070747;28;20024;-88
2023/09/13 04:37:11;;;;;;;180.52;55.97;;;;;;;-147.95;100.00;58458.38;5086465;28;20024;-88
2023/09/13 04:39:37;;;;;;;187.27;56.72;;;;;;;-147.95;100.00;58458.38;5065528;28;20421;-92
2023/09/13 04:42:02;;;;;;;186.95;58.33;;;;;;;-147.95;100.00;58458.38;5080166;28;20133;-93
2023/09/13 04:44:28;;;;;;;191.82;58.33;;;;;;;-147.95;100.00;58458.38;5065858;28;20032;-89
2023/09/13 04:46:53;;;;;;;202.15;62.60;;;;;;;-147.95;100.00;58458.38;5067655;28;20028;-87
2023/09/13 04:49:19;;;;;;;193.05;58.78;;;;;;;-147.95;100.00;58458.38;5085902;28;20113;-90
2023/09/13 04:51:44;;;;;;;198.13;60.40;;;;;;;-147.95;100.00;58458.38;5075610;28;20051;-90
2023/09/13 04:54:10;;;;;;;209.13;59.83;;;;;;;-147.95;100.00;58458.38;5057137;28;20052;-87
2023/09/13 04:56:35;;;;;;;205.65;61.15;;;;;;;-147.95;100.00;58458.38;5093601;28;20134;-90
2023/09/13 04:59:01;;;;;;;207.10;63.17;;;;;;;-147.95;100.00;58458.38;5085885;28;20055;-86
2023/09/13 05:01:26;;;;;;;209.65;61.15;;;;;;;-147.95;100.00;58458.38;5067093;28;20399;-86
2023/09/13 05:03:56;;;;;;;220.27;63.30;;;;;;;-147.95;100.00;58458.38;5067879;28;20388;-86
2023/09/13 05:06:22;;;;;;;211.82;65.00;;;;;;;-147.95;100.00;58458.38;5085983;28;20482;-87
2023/09/13 05:08:50;;;;;;;227.60;63.97;;;;;;;-147.95;100.00;58458.38;5071883;28;20502;-87
2023/09/13 05:11:16;;;;;;;221.77;62.20;;;;;;;-147.95;100.00;58458.38;5086032;28;20027;-87
2023/09/13 05:13:41;;;;;;;218.05;63.10;;;;;;;-147.95;100.00;58458.38;5059189;28;20032;-86
2023/09/13 05:16:07;;;;;;;215.25;64.40;;;;;;;-147.95;100.00;58458.38;5085530;28;20059;-87
2023/09/13 05:18:33;;;;;;;228.02;65.32;;;;;;;-147.95;100.00;58458.38;5089249;28;20510;-86
2023/09/13 05:20:59;;;;;;;223.80;59.53;;;;;;;-147.95;100.00;58458.38;5078722;28;20051;-86
2023/09/13 05:23:25;;;;;;;210.23;61.75;;;;;;;-147.95;100.00;58458.38;5085999;28;20114;-86
2023/09/13 05:25:51;;;;;;;212.80;61.40;;;;;;;-147.95;100.00;58458.38;5063898;28;20039;-87
2023/09/13 05:28:16;;;;;;;215.38;62.17;;;;;;;-147.95;100.00;58458.38;5082628;28;20024;-87
2023/09/13 05:30:46;;;;;;;213.57;61.60;;;;;;;-147.95;100.00;58458.38;5072299;28;20077;-87
2023/09/13 05:33:12;;;;;;;215.00;61.97;;;;;;;-147.95;100.00;58458.38;5082665;28;20051;-88
2023/09/13 05:35:38;;;;;;;213.73;62.35;;;;;;;-147.95;100.00;58458.38;5086651;28;20111;-87
2023/09/13 05:38:04;;;;;;;215.82;62.33;;;;;;;-147.95;100.00;58458.38;5084864;28;20032;-87
2023/09/13 05:40:30;;;;;;;208.20;60.38;;;;;;;-147.95;100.00;58458.38;5083803;28;20044;-80
2023/09/13 05:42:57;;;;;;;211.65;61.38;;;;;;;-147.95;100.00;58458.38;5086662;28;20119;-80
2023/09/13 05:45:23;;;;;;;205.50;59.10;;;;;;;-147.95;100.00;58458.38;5088250;28;20020;-79
2023/09/13 05:47:50;;;;;;;192.38;57.72;;;;;;;-147.95;100.00;58458.38;5087205;28;20031;-79
2023/09/13 05:50:15;;;;;;;187.23;56.95;;;;;;;-147.95;100.00;58458.38;5073622;28;20043;-79
2023/09/13 05:52:41;;;;;;;182.00;57.83;;;;;;;-147.95;100.00;58458.38;5068882;28;20414;-79
2023/09/13 05:55:08;;;;;;;181.55;56.65;;;;;;;-147.95;100.00;58458.38;5088755;28;20135;-79
2023/09/13 05:57:35;;;;;;;188.48;58.45;;;;;;;-147.95;100.00;58458.38;5083854;28;20032;-80
2023/09/13 06:00:00;;;;;;;183.55;58.20;;;;;;;-147.95;100.00;58458.38;5085040;28;20024;-80
2023/09/13 06:02:25;;;;;;;180.73;56.65;;;;;;;-147.95;100.00;58458.38;5082504;28;20020;-80
2023/09/13 06:04:51;;;;;;;179.13;54.63;;;;;;;-147.95;100.00;58458.38;5052417;28;20043;-80
2023/09/13 06:07:16;;;;;;;193.70;57.17;;;;;;;-147.95;100.00;58458.38;5066135;28;20038;-80
2023/09/13 06:09:42;;;;;;;179.82;57.95;;;;;;;-147.95;100.00;58458.38;5086183;28;20069;-79
2023/09/13 06:12:07;;;;;;;170.30;53.20;;;;;;;-147.95;100.00;58458.38;5083842;28;20086;-79
2023/09/13 06:14:33;;;;;;;159.75;52.53;;;;;;;-147.95;100.00;58458.38;5086371;28;20078;-80
2023/09/13 06:16:58;;;;;;;171.30;55.83;;;;;;;-147.95;100.00;58458.38;5081951;28;20667;-80
2023/09/13 06:19:24;;;;;;;186.65;55.63;;;;;;;-147.95;100.00;58458.38;5086952;28;20153;-79
2023/09/13 06:21:52;;;;;;;151.48;51.47;;;;;;;-147.95;100.00;58458.38;5084017;28;20410;-81
2023/09/13 06:24:18;;;;;;;150.25;51.35;;;;;;;-147.95;100.00;58458.38;5060369;28;20047;-81
2023/09/13 06:26:43;;;;;;;168.57;54.25;;;;;;;-147.95;100.00;58458.38;5086701;28;20446;-81
2023/09/13 06:29:10;;;;;;;159.43;52.97;;;;;;;-147.95;100.00;58458.38;5067704;28;20514;-82
2023/09/13 06:31:35;;;;;;;152.52;52.72;;;;;;;-147.95;100.00;58458.38;5051021;28;20502;-83
2023/09/13 06:34:03;;;;;;;172.73;54.38;;;;;;;-147.95;100.00;58458.38;5065834;28;20039;-82
2023/09/13 06:36:28;;;;;;;155.05;52.38;;;;;;;-147.95;100.00;58458.38;5084551;28;20025;-82
2023/09/13 06:38:54;;;;;;;160.45;52.53;;;;;;;-147.95;100.00;58458.38;5083521;28;20066;-80
2023/09/13 06:41:21;;;;;;;161.13;51.63;;;;;;;-147.95;100.00;58458.38;5081253;28;20052;-81
2023/09/13 06:43:48;;;;;;;160.18;53.13;;;;;;;-147.95;100.00;58458.38;5068637;28;20543;-82
2023/09/13 06:46:13;;;;;;;161.27;52.15;;;;;;;-147.95;100.00;58458.38;5082773;28;20115;-83
2023/09/13 06:48:40;;;;;;;176.23;54.35;;;;;;;-147.95;100.00;58458.38;5085843;28;20069;-81
2023/09/13 06:51:07;;;;;;;163.70;53.08;;;;;;;-147.95;100.00;58458.38;5084887;28;20039;-83
2023/09/13 06:53:32;;;;;;;149.10;50.92;;;;;;;-147.95;100.00;58458.38;5062224;28;20021;-85
2023/09/13 06:55:58;;;;;;;151.27;53.28;;;;;;;-147.95;100.00;58458.38;5067560;28;20051;-80
2023/09/13 06:58:24;;;;;;;154.52;51.55;;;;;;;-147.95;100.00;58458.38;5081661;28;20036;-82
2023/09/13 07:00:50;;;;;;;141.45;49.30;;;;;;;-147.95;100.00;58458.38;5055641;28;20059;-81
2023/09/13 07:03:15;;;;;;;151.00;51.30;;;;;;;-147.95;100.00;58458.38;5070763;28;20075;-81
2023/09/13 07:05:42;;;;;;;135.45;49.28;;;;;;;-147.95;100.00;58458.38;5055606;28;20119;-81
2023/09/13 07:08:08;;;;;;;143.05;49.47;;;;;;;-147.95;100.00;58458.38;5081366;28;20535;-82
2023/09/13 07:10:34;;;;;;;134.88;47.38;;;;;;;-147.95;100.00;58458.38;5069932;28;20032;-81
2023/09/13 07:13:02;;;;;;;129.02;49.08;;;;;;;-147.95;100.00;58458.38;5087631;28;20138;-81
2023/09/13 07:15:29;;;;;;;130.00;47.22;;;;;;;-147.95;100.00;58458.38;5054857;28;20062;-82
2023/09/13 07:17:54;;;;;;;130.05;45.65;;;;;;;-147.95;100.00;58458.38;5086930;28;20028;-82
2023/09/13 07:20:20;;;;;;;127.00;47.58;;;;;;;-147.95;100.00;58458.38;5045207;28;20112;-81
2023/09/13 07:22:47;;;;;;;134.05;46.60;;;;;;;-147.95;100.00;58458.38;5085213;28;20459;-81
2023/09/13 07:25:12;;;;;;;136.63;48.85;;;;;;;-147.95;100.00;58458.38;5067354;28;20029;-81
2023/09/13 07:27:38;;;;;;;141.13;48.45;;;;;;;-147.95;100.00;58458.38;5080415;28;20403;-82
2023/09/13 07:30:09;;;;;;;146.75;48.53;;;;;;;-147.95;100.00;58458.38;5053045;28;20170;-81
2023/09/13 07:32:35;;;;;;;137.68;47.88;;;;;;;-147.95;100.00;58458.38;5067477;28;20044;-82
2023/09/13 07:35:01;;;;;;;130.05;45.80;;;;;;;-147.95;100.00;58458.38;5056242;28;20036;-82
2023/09/13 07:37:27;;;;;;;124.60;46.05;;;;;;;-147.95;100.00;58458.38;5067827;28;20020;-81
2023/09/13 07:39:52;;;;;;;133.85;45.85;;;;;;;-147.95;100.00;58458.38;5073142;28;20032;-82
2023/09/13 07:42:18;;;;;;;123.43;44.75;;;;;;;-147.95;100.00;58458.38;5066330;28;20098;-81
2023/09/13 07:44:43;;;;;;;118.80;42.80;;;;;;;-147.95;100.00;58458.38;5081798;28;20043;-81
2023/09/13 07:47:09;;;;;;;121.82;45.45;;;;;;;-147.95;100.00;58458.38;5068719;28;20064;-82
2023/09/13 07:49:34;;;;;;;113.57;44.63;;;;;;;-147.95;100.00;58458.38;5085245;28;20034;-82
2023/09/13 07:51:59;;;;;;;114.35;43.80;;;;;;;-147.95;100.00;58458.38;5086969;28;20056;-82
2023/09/13 07:54:25;;;;;;;116.30;45.42;;;;;;;-147.95;100.00;58458.38;5054363;28;20054;-81
2023/09/13 07:56:50;;;;;;;113.25;43.40;;;;;;;-147.95;100.00;58458.38;5083812;28;20081;-82
2023/09/13 07:59:17;;;;;;;108.05;42.80;;;;;;;-147.95;100.00;58458.38;5069821;28;20036;-82
2023/09/13 08:01:44;;;;;;;100.80;41.50;;;;;;;-147.95;100.00;58458.38;5087659;28;20418;-82
2023/09/13 08:04:09;;;;;;;101.22;42.70;;;;;;;-147.95;100.00;58458.38;5087503;28;20486;-82
2023/09/13 08:06:41;;;;;;;95.38;39.75;;;;;;;-147.95;100.00;58458.38;5085324;28;20081;-82
2023/09/13 08:09:07;;;;;;;100.55;40.53;;;;;;;-147.95;100.00;58458.38;5073450;28;20037;-82
2023/09/13 08:11:32;;;;;;;101.72;38.83;;;;;;;-147.95;100.00;58458.38;5090099;28;20032;-82
2023/09/13 08:13:58;;;;;;;103.55;38.45;;;;;;;-147.95;100.00;58458.38;5073037;28;20066;-82
2023/09/13 08:16:24;;;;;;;91.28;38.33;;;;;;;-147.95;100.00;58458.38;5073919;28;20062;-82
2023/09/13 08:18:49;;;;;;;98.50;39.40;;;;;;;-147.95;100.00;58458.38;5071698;28;20083;-82
2023/09/13 08:21:15;;;;;;;92.95;37.75;;;;;;;-147.95;100.00;58458.38;5089479;28;20024;-82
2023/09/13 08:23:40;;;;;;;93.72;37.17;;;;;;;-147.95;100.00;58458.38;5089221;28;20722;-82
2023/09/13 08:26:06;;;;;;;86.53;37.72;;;;;;;-147.95;100.00;58458.38;5073917;28;20028;-83
2023/09/13 08:28:31;;;;;;;63.35;24.30;;;;;;;-147.95;100.00;58458.38;5083601;28;20048;-83
2023/09/13 08:30:57;;;;;;;41.45;15.35;;;;;;;-147.95;100.00;58458.38;5088731;28;20070;-83
2023/09/13 08:33:22;;;;;;;20.75;9.70;;;;;;;-147.95;100.00;58458.38;5062464;28;20028;-80
2023/09/13 08:35:48;;;;;;;13.98;6.18;;;;;;;-147.95;100.00;58458.38;5073514;28;20028;-79
2023/09/13 08:38:13;;;;;;;13.70;5.20;;;;;;;-147.95;100.00;58458.38;5072051;28;20036;-80
2023/09/13 08:40:40;;;;;;;14.18;4.40;;;;;;;-147.95;100.00;58458.38;5087034;28;20067;-79
2023/09/13 08:43:09;;;;;;;12.25;4.68;;;;;;;-147.95;100.00;58458.38;5087959;28;20116;-79
2023/09/13 08:45:35;;;;;;;8.77;3.83;;;;;;;-147.95;100.00;58458.38;5091569;28;20028;-79
2023/09/13 08:48:02;;;;;;;6.75;2.63;;;;;;;-147.95;100.00;58458.38;5057139;28;20398;-79
2023/09/13 08:50:29;;;;;;;7.53;2.67;;;;;;;-147.95;100.00;58458.38;5052487;28;20109;-80
2023/09/13 08:52:59;;;;;;;5.57;1.92;;;;;;;-147.95;100.00;58458.38;5089073;28;20030;-80
2023/09/13 08:55:26;;;;;;;6.03;1.90;;;;;;;-147.95;100.00;58458.38;5072977;28;20033;-79
2023/09/13 08:57:53;;;;;;;2.92;1.48;;;;;;;-147.95;100.00;58458.38;5071657;28;20036;-80
2023/09/13 09:00:19;;;;;;;6.22;1.30;;;;;;;-147.95;100.00;58458.38;5072098;28;20425;-79
2023/09/13 09:02:48;;;;;;;3.13;1.20;;;;;;;-147.95;100.00;58458.38;5091319;28;20501;-80
2023/09/13 09:05:16;;;;;;;3.47;1.00;;;;;;;-147.95;100.00;58458.38;5080138;28;20031;-79
2023/09/13 09:07:44;;;;;;;2.47;1.02;;;;;;;-147.95;100.00;58458.38;5083858;28;20024;-80
2023/09/13 09:10:12;;;;;;;1.63;0.90;;;;;;;-147.95;100.00;58458.38;5088490;28;20028;-79
2023/09/13 09:12:45;;;;;;;3.92;1.10;;;;;;;-147.95;100.00;58458.38;5071602;28;20036;-79
2023/09/13 09:15:13;;;;;;;4.50;1.30;;;;;;;-147.95;100.00;58458.38;5084138;28;20036;-79
2023/09/13 09:17:41;;;;;;;1.05;0.95;;;;;;;-147.95;100.00;58458.38;5085886;28;20031;-80
2023/09/13 09:20:07;;;;;;;2.35;1.10;;;;;;;-147.95;100.00;58458.38;5086902;28;20146;-80
2023/09/13 09:22:33;;;;;;;6.70;1.30;;;;;;;-147.95;100.00;58458.38;5089328;28;20024;-80
2023/09/13 09:25:08;;;;;;;2.45;1.05;;;;;;;-147.95;100.00;58458.38;5068119;28;20040;-80
2023/09/13 09:27:33;;;;;;;1.90;1.00;;;;;;;-147.95;100.00;58458.38;5087993;28;20105;-80
2023/09/13 09:30:00;;;;;;;1.30;1.20;;;;;;;-147.95;100.00;58458.38;5057945;28;20503;-80
2023/09/13 09:32:30;;;;;;;2.90;1.00;;;;;;;-147.95;100.00;58458.38;5087212;28;20027;-80
2023/09/13 09:34:58;;;;;;;3.10;0.95;;;;;;;-147.95;100.00;58458.38;5088947;28;20383;-80
2023/09/13 09:37:31;;;;;;;4.40;1.00;;;;;;;-147.95;100.00;58458.38;5083346;28;20541;-80
2023/09/13 09:39:57;;;;;;;3.42;0.80;;;;;;;-147.95;100.00;58458.38;5082476;28;20402;-81
2023/09/13 09:42:24;;;;;;;1.98;0.88;;;;;;;-147.95;100.00;58458.38;5084512;28;20070;-81
2023/09/13 09:44:51;;;;;;;1.60;0.90;;;;;;;-147.95;100.00;58458.38;5088792;28;20093;-81
2023/09/13 09:47:17;;;;;;;2.65;1.02;;;;;;;-147.95;100.00;58458.38;5060589;28;20064;-82
2023/09/13 09:49:47;;;;;;;5.55;1.10;;;;;;;-147.95;100.00;58458.38;5082078;28;20024;-82
2023/09/13 09:52:14;;;;;;;3.47;1.00;;;;;;;-147.95;100.00;58458.38;5081342;28;20028;-82
2023/09/13 09:54:40;;;;;;;4.50;0.85;;;;;;;-147.95;100.00;58458.38;5077721;28;20070;-81
2023/09/13 09:57:06;;;;;;;2.42;0.93;;;;;;;-147.95;100.00;58458.38;5083904;28;20028;-80
2023/09/13 09:59:34;;;;;;;1.45;0.90;;;;;;;-147.95;100.00;58458.38;5089757;28;20056;-81
2023/09/13 10:02:01;;;;;;;2.38;0.73;;;;;;;-147.95;100.00;58458.38;5085193;28;20044;-81
2023/09/13 10:04:26;;;;;;;3.03;1.10;;;;;;;-147.95;100.00;58458.38;5066587;28;20025;-81
2023/09/13 10:06:57;;;;;;;3.58;0.90;;;;;;;-147.95;100.00;58458.38;5084838;28;20458;-81
2023/09/13 10:09:22;;;;;;;1.35;0.70;;;;;;;-147.95;100.00;58458.38;5081932;28;20027;-81
2023/09/13 10:11:55;;;;;;;2.28;0.90;;;;;;;-147.95;100.00;58458.38;5078946;28;20024;-81
2023/09/13 10:14:27;;;;;;;2.30;1.00;;;;;;;-147.95;100.00;58458.38;5081433;28;20463;-81
2023/09/13 10:16:54;;;;;;;2.47;0.83;;;;;;;-147.95;100.00;58458.38;5085855;28;20363;-81
2023/09/13 10:19:23;;;;;;;1.83;0.90;;;;;;;-147.95;100.00;58458.38;5087081;28;20020;-81
2023/09/13 10:21:50;;;;;;;2.38;0.80;;;;;;;-147.95;100.00;58458.38;5083748;28;20047;-81
2023/09/13 10:24:18;;;;;;;1.85;0.90;;;;;;;-147.95;100.00;58458.38;5079526;28;20025;-81
2023/09/13 10:26:45;;;;;;;9.40;1.30;;;;;;;-147.95;100.00;58458.38;5081622;28;20012;-81
2023/09/13 10:29:17;;;;;;;1.48;0.85;;;;;;;-147.95;100.00;58458.38;5086082;28;20486;-81
2023/09/13 10:31:48;;;;;;;1.77;0.80;;;;;;;-147.95;100.00;58458.38;5081930;28;20031;-81
2023/09/13 10:34:27;;;;;;;1.95;0.80;;;;;;;-147.95;100.00;58458.38;5078531;28;20035;-81
2023/09/13 10:37:01;;;;;;;2.25;0.93;;;;;;;-147.95;100.00;58458.38;5079623;28;20078;-81
2023/09/13 10:39:30;;;;;;;2.00;0.80;;;;;;;-147.95;100.00;58458.38;5087478;28;20027;-81
2023/09/13 10:42:22;;;;;;;1.15;0.70;;;;;;;-147.95;100.00;58458.38;5081901;28;20066;-81
2023/09/13 10:44:48;;;;;;;2.78;1.63;;;;;;;-147.95;100.00;58458.38;5081395;28;20118;-81
2023/09/13 10:47:14;;;;;;;1.80;0.90;;;;;;;-147.95;100.00;58458.38;5074118;28;20127;-81
2023/09/13 10:49:41;;;;;;;2.15;0.90;;;;;;;-147.95;100.00;58458.38;5085812;28;20021;-81